Time;durP1;ratioP1;P1;durP2;ratioP2;P2;SDS_P1;SDS_P2;PMS_P1;PMS_P2;Temp;Humidity;BMP_temperature;BMP_pressure;BME280_temperature;BME280_humidity;BME280_pressure;Samples;Min_cycle;Max_cycle;Signal;HPM_P1;HPM_P2
2021/11/06 00:02:04;;;;;;;183.68;54.92;;;14.20;99.90;;;;;;5116967;28;20049;-85
2021/11/06 00:04:30;;;;;;;179.65;54.97;;;14.20;99.90;;;;;;5115713;28;20023;-89
2021/11/06 00:06:56;;;;;;;189.32;56.40;;;14.20;99.90;;;;;;5115268;28;20118;-85
2021/11/06 00:09:21;;;;;;;188.52;59.28;;;14.20;99.90;;;;;;5115524;28;20394;-86
2021/11/06 00:11:47;;;;;;;207.45;60.72;;;14.20;99.90;;;;;;5117069;28;20031;-86
2021/11/06 00:14:13;;;;;;;180.57;55.92;;;14.20;99.90;;;;;;5115405;28;20027;-85
2021/11/06 00:16:39;;;;;;;175.57;58.08;;;14.20;99.90;;;;;;5115323;28;20410;-85
2021/11/06 00:19:04;;;;;;;201.70;61.42;;;14.20;99.90;;;;;;5116643;28;20462;-86
2021/11/06 00:21:30;;;;;;;200.55;58.88;;;14.20;99.90;;;;;;5115878;28;20031;-85
2021/11/06 00:23:56;;;;;;;180.88;57.38;;;14.20;99.90;;;;;;5115087;28;20363;-86
2021/11/06 00:26:21;;;;;;;168.63;54.67;;;14.20;99.90;;;;;;5115076;28;20038;-84
2021/11/06 00:28:47;;;;;;;182.43;54.45;;;14.20;99.90;;;;;;5115512;28;20031;-85
2021/11/06 00:31:13;;;;;;;193.27;57.22;;;14.20;99.90;;;;;;5116500;28;20046;-86
2021/11/06 00:33:38;;;;;;;183.88;57.80;;;14.20;99.90;;;;;;5114736;28;20429;-87
2021/11/06 00:36:04;;;;;;;168.10;53.35;;;14.20;99.90;;;;;;5115005;28;20102;-85
2021/11/06 00:38:30;;;;;;;170.13;54.13;;;14.20;99.90;;;;;;5115924;28;20036;-85
2021/11/06 00:40:56;;;;;;;170.40;53.10;;;14.20;99.90;;;;;;5115794;28;20077;-85
2021/11/06 00:43:22;;;;;;;168.73;52.05;;;14.20;99.90;;;;;;5116265;28;20036;-86
2021/11/06 00:45:48;;;;;;;193.25;55.90;;;14.20;99.90;;;;;;5114750;28;20035;-85
2021/11/06 00:48:13;;;;;;;203.05;56.28;;;14.20;99.90;;;;;;5114788;28;20409;-85
2021/11/06 00:50:39;;;;;;;172.93;52.90;;;14.20;99.90;;;;;;5115872;28;20084;-85
2021/11/06 00:53:05;;;;;;;174.65;50.83;;;14.20;99.90;;;;;;5114433;28;20051;-85
2021/11/06 00:55:31;;;;;;;192.23;52.83;;;14.20;99.90;;;;;;5114398;28;20050;-85
2021/11/06 00:57:56;;;;;;;222.55;57.30;;;14.20;99.90;;;;;;5114792;28;20023;-85
2021/11/06 01:00:22;;;;;;;196.88;55.08;;;14.20;99.90;;;;;;5114971;28;20464;-85
2021/11/06 01:02:49;;;;;;;193.88;56.25;;;14.20;99.90;;;;;;5115748;28;20031;-85
2021/11/06 01:05:16;;;;;;;227.70;56.03;;;14.20;99.90;;;;;;5114383;28;20026;-85
2021/11/06 01:07:42;;;;;;;185.25;54.33;;;14.10;99.90;;;;;;5115619;28;20023;-87
2021/11/06 01:10:10;;;;;;;189.50;54.95;;;14.20;99.90;;;;;;5114768;28;20031;-86
2021/11/06 01:12:36;;;;;;;189.73;53.95;;;14.20;99.90;;;;;;5115630;28;20470;-86
2021/11/06 01:15:03;;;;;;;193.35;56.70;;;14.20;99.90;;;;;;5114343;28;20024;-85
2021/11/06 01:17:29;;;;;;;197.25;54.40;;;14.20;99.90;;;;;;5114181;28;20016;-85
2021/11/06 01:19:55;;;;;;;215.40;52.85;;;14.20;99.90;;;;;;5113556;28;20028;-85
2021/11/06 01:22:21;;;;;;;221.95;55.58;;;14.10;99.90;;;;;;5115461;28;20023;-86
2021/11/06 01:24:46;;;;;;;207.35;53.28;;;14.20;99.90;;;;;;5114896;28;20028;-85
2021/11/06 01:27:12;;;;;;;224.32;55.60;;;14.10;99.90;;;;;;5114056;28;20066;-85
2021/11/06 01:29:39;;;;;;;204.32;58.42;;;14.10;99.90;;;;;;5114274;28;20036;-87
2021/11/06 01:32:06;;;;;;;244.77;55.75;;;14.10;99.90;;;;;;5113960;28;20554;-85
2021/11/06 01:34:35;;;;;;;232.27;56.75;;;14.10;99.90;;;;;;5113862;28;20052;-85
2021/11/06 01:37:01;;;;;;;224.38;56.00;;;14.10;99.90;;;;;;5113771;28;20047;-86
2021/11/06 01:39:27;;;;;;;215.63;53.20;;;14.10;99.90;;;;;;5114854;28;20070;-86
2021/11/06 01:41:53;;;;;;;356.75;66.25;;;14.10;99.90;;;;;;5097118;28;20489;-86
2021/11/06 01:44:19;;;;;;;237.93;62.60;;;14.10;99.90;;;;;;5113242;28;20036;-85
2021/11/06 01:46:45;;;;;;;226.30;55.70;;;14.00;99.90;;;;;;5113825;28;20115;-85
2021/11/06 01:49:10;;;;;;;310.73;61.45;;;14.00;99.90;;;;;;5113468;28;20110;-85
2021/11/06 01:51:36;;;;;;;320.38;63.22;;;14.10;99.90;;;;;;5114811;28;20031;-86
2021/11/06 01:54:03;;;;;;;293.60;61.35;;;14.00;99.90;;;;;;5113548;28;20072;-85
2021/11/06 01:56:29;;;;;;;266.33;62.55;;;14.00;99.90;;;;;;5113593;28;20032;-85
2021/11/06 01:58:55;;;;;;;303.33;65.07;;;14.00;99.90;;;;;;5113215;28;20172;-87
2021/11/06 02:01:21;;;;;;;300.35;65.45;;;14.00;99.90;;;;;;5114727;28;20024;-85
2021/11/06 02:03:47;;;;;;;389.20;68.40;;;14.00;99.90;;;;;;5115224;28;20012;-87
2021/11/06 02:06:13;;;;;;;272.15;60.30;;;14.00;99.90;;;;;;5113550;28;20439;-85
2021/11/06 02:08:39;;;;;;;243.65;55.95;;;13.90;99.90;;;;;;5113188;28;20428;-85
2021/11/06 02:11:06;;;;;;;231.05;57.95;;;13.90;99.90;;;;;;5113589;28;20020;-87
2021/11/06 02:13:32;;;;;;;297.73;62.58;;;13.90;99.90;;;;;;5113448;28;20115;-85
2021/11/06 02:15:57;;;;;;;345.10;65.18;;;13.90;99.90;;;;;;5113781;28;20027;-85
2021/11/06 02:18:24;;;;;;;259.83;58.30;;;13.90;99.90;;;;;;5114591;28;20024;-91
2021/11/06 02:21:05;;;;;;;315.15;70.22;;;13.90;99.90;;;;;;5114641;28;20034;-87
2021/11/06 02:23:37;;;;;;;316.27;67.22;;;13.90;99.90;;;;;;5109968;28;20443;-85
2021/11/06 02:26:06;;;;;;;281.02;63.95;;;13.80;99.90;;;;;;5113778;28;20062;-88
2021/11/06 02:28:32;;;;;;;291.13;65.00;;;13.80;99.90;;;;;;5112991;28;20069;-87
2021/11/06 02:30:58;;;;;;;251.85;62.00;;;13.80;99.90;;;;;;5113516;28;20047;-85
2021/11/06 02:33:24;;;;;;;347.88;68.55;;;13.80;99.90;;;;;;5113136;28;20024;-87
2021/11/06 02:35:50;;;;;;;210.48;59.90;;;13.80;99.90;;;;;;5114530;28;20541;-88
2021/11/06 02:38:16;;;;;;;214.73;59.72;;;13.80;99.90;;;;;;5113592;28;20102;-90
2021/11/06 02:40:42;;;;;;;121.53;53.00;;;13.80;99.90;;;;;;5114092;28;20030;-88
2021/11/06 02:43:09;;;;;;;129.38;52.22;;;13.80;99.90;;;;;;5113065;28;20208;-88
2021/11/06 02:45:36;;;;;;;111.05;48.08;;;13.70;99.90;;;;;;5113792;28;20389;-90
2021/11/06 02:48:04;;;;;;;100.55;47.47;;;13.70;99.90;;;;;;5113646;28;20019;-88
2021/11/06 02:50:30;;;;;;;82.18;42.53;;;13.60;99.90;;;;;;5113548;28;20493;-92
2021/11/06 02:52:56;;;;;;;65.82;36.38;;;13.60;99.90;;;;;;5113838;28;20024;-92
2021/11/06 02:55:22;;;;;;;54.55;32.28;;;13.50;99.90;;;;;;5096440;28;20024;-91
2021/11/06 02:57:48;;;;;;;54.45;29.52;;;13.50;99.90;;;;;;5113701;28;20027;-92
2021/11/06 03:00:15;;;;;;;44.70;28.27;;;13.50;99.90;;;;;;5113244;28;20023;-92
2021/11/06 03:02:40;;;;;;;43.30;27.10;;;13.40;99.90;;;;;;5113371;28;20030;-92
2021/11/06 03:05:09;;;;;;;42.47;24.92;;;13.40;99.90;;;;;;5113261;28;20114;-92
2021/11/06 03:07:35;;;;;;;38.70;23.35;;;13.40;99.90;;;;;;5113437;28;20028;-89
2021/11/06 03:10:01;;;;;;;37.60;23.98;;;13.30;99.90;;;;;;5113522;28;20436;-89
2021/11/06 03:12:28;;;;;;;34.58;23.63;;;13.30;99.90;;;;;;5113354;28;20024;-93
2021/11/06 03:14:53;;;;;;;36.95;22.60;;;13.30;99.90;;;;;;5111897;28;20494;-89
2021/11/06 03:17:19;;;;;;;35.95;22.42;;;13.30;99.90;;;;;;5113675;28;20024;-91
2021/11/06 03:19:45;;;;;;;33.20;22.45;;;13.30;99.90;;;;;;5113149;28;20150;-89
2021/11/06 03:22:11;;;;;;;36.47;24.25;;;13.20;99.90;;;;;;5113187;28;20382;-91
2021/11/06 03:24:37;;;;;;;36.22;23.40;;;13.10;99.90;;;;;;5113576;28;20394;-90
2021/11/06 03:27:05;;;;;;;33.20;20.95;;;13.00;99.90;;;;;;5113050;28;20028;-90
2021/11/06 03:29:30;;;;;;;33.20;21.52;;;13.00;99.90;;;;;;5113099;28;20023;-93
2021/11/06 03:31:56;;;;;;;31.25;20.23;;;12.90;99.90;;;;;;5113266;28;20028;-93
2021/11/06 03:34:22;;;;;;;29.33;18.75;;;12.90;99.90;;;;;;5112900;28;20512;-90
2021/11/06 03:36:48;;;;;;;28.20;17.27;;;12.80;99.90;;;;;;5113323;28;20114;-92
2021/11/06 03:39:14;;;;;;;24.85;15.88;;;12.80;99.90;;;;;;5113171;28;20114;-90
2021/11/06 03:41:39;;;;;;;25.80;16.17;;;12.70;99.90;;;;;;5114238;28;20114;-92
2021/11/06 03:44:06;;;;;;;21.38;15.00;;;12.60;99.90;;;;;;5116398;28;20023;-92
2021/11/06 03:46:32;;;;;;;21.13;13.43;;;12.50;99.90;;;;;;5116669;28;20466;-90
2021/11/06 03:48:58;;;;;;;20.23;12.40;;;12.40;99.90;;;;;;5116593;28;20038;-90
2021/11/06 03:51:24;;;;;;;16.17;11.55;;;12.30;99.90;;;;;;5099733;28;20034;-91
2021/11/06 03:53:51;;;;;;;17.80;11.57;;;12.10;99.90;;;;;;5116375;28;20023;-90
2021/11/06 03:56:17;;;;;;;15.07;11.00;;;11.80;99.90;;;;;;5116571;28;20107;-89
2021/11/06 03:58:44;;;;;;;17.85;12.10;;;11.50;99.90;;;;;;5116471;28;20473;-90
2021/11/06 04:01:09;;;;;;;21.70;12.25;;;11.40;99.90;;;;;;5115985;28;20385;-91
2021/11/06 04:03:36;;;;;;;15.70;11.80;;;11.20;99.90;;;;;;5117493;28;20031;-89
2021/11/06 04:06:02;;;;;;;15.93;11.00;;;11.00;99.90;;;;;;5116497;28;20028;-88
2021/11/06 04:08:28;;;;;;;18.38;10.52;;;10.80;99.90;;;;;;5116362;28;20020;-88
2021/11/06 04:10:54;;;;;;;15.38;11.30;;;10.60;99.90;;;;;;5116094;28;20458;-90
2021/11/06 04:13:20;;;;;;;18.63;10.95;;;10.50;99.90;;;;;;5116068;28;20514;-89
2021/11/06 04:15:47;;;;;;;16.63;12.38;;;10.40;99.90;;;;;;5115910;28;20055;-88
2021/11/06 04:18:12;;;;;;;16.83;11.95;;;10.30;99.90;;;;;;5117101;28;20102;-91
2021/11/06 04:20:38;;;;;;;19.58;12.95;;;10.10;99.90;;;;;;5115887;28;20549;-90
2021/11/06 04:23:04;;;;;;;21.45;14.63;;;10.00;99.90;;;;;;5116247;28;20024;-90
2021/11/06 04:25:30;;;;;;;21.15;13.45;;;10.00;99.90;;;;;;5115751;28;20122;-88
2021/11/06 04:27:56;;;;;;;21.65;14.68;;;9.90;99.90;;;;;;5116257;28;20046;-90
2021/11/06 04:30:21;;;;;;;20.95;12.63;;;9.80;99.90;;;;;;5115459;28;20110;-91
2021/11/06 04:32:47;;;;;;;18.00;11.50;;;9.80;99.90;;;;;;5116214;28;20104;-90
2021/11/06 04:35:13;;;;;;;14.18;9.38;;;9.70;99.90;;;;;;5115100;28;20134;-89
2021/11/06 04:37:39;;;;;;;15.60;11.07;;;9.60;99.90;;;;;;5116092;28;20458;-90
2021/11/06 04:40:07;;;;;;;13.55;10.60;;;9.60;99.90;;;;;;5114960;28;20069;-91
2021/11/06 04:42:33;;;;;;;12.05;9.93;;;9.60;99.90;;;;;;5115293;28;20024;-91
2021/11/06 04:44:59;;;;;;;12.35;8.90;;;9.50;99.90;;;;;;5115491;28;20020;-90
2021/11/06 04:47:25;;;;;;;12.32;9.23;;;9.60;99.90;;;;;;5115041;28;20073;-85
2021/11/06 04:49:50;;;;;;;11.05;9.00;;;9.60;99.90;;;;;;5115170;28;20110;-86
2021/11/06 04:52:16;;;;;;;11.57;8.80;;;9.60;99.90;;;;;;5114881;28;20020;-87
2021/11/06 04:54:42;;;;;;;11.65;8.52;;;9.60;99.90;;;;;;5114703;28;20042;-86
2021/11/06 04:57:08;;;;;;;11.20;8.43;;;9.60;99.90;;;;;;5114835;28;20385;-88
2021/11/06 04:59:34;;;;;;;11.85;8.80;;;9.60;99.90;;;;;;5115204;28;20019;-88
2021/11/06 05:02:01;;;;;;;12.68;8.80;;;9.60;99.90;;;;;;5115841;28;20462;-88
2021/11/06 05:04:27;;;;;;;13.65;8.48;;;9.60;99.90;;;;;;5115355;28;20028;-87
2021/11/06 05:06:53;;;;;;;9.73;8.23;;;9.60;99.90;;;;;;5114520;28;20030;-86
2021/11/06 05:09:19;;;;;;;11.63;7.95;;;9.60;99.90;;;;;;5114931;28;20031;-87
2021/11/06 05:11:45;;;;;;;13.23;8.35;;;9.60;99.90;;;;;;5114704;28;20035;-87
2021/11/06 05:14:10;;;;;;;11.98;7.75;;;9.60;99.90;;;;;;5115020;28;20031;-87
2021/11/06 05:16:36;;;;;;;12.50;7.72;;;9.60;99.90;;;;;;5114899;28;20098;-89
2021/11/06 05:19:02;;;;;;;11.35;8.00;;;9.60;99.90;;;;;;5114800;28;20054;-88
2021/11/06 05:21:35;;;;;;;11.27;8.43;;;9.60;99.90;;;;;;5115216;28;20111;-94
2021/11/06 05:24:03;;;;;;;13.50;8.18;;;9.60;99.90;;;;;;5099133;28;20075;-87
2021/11/06 05:26:28;;;;;;;9.73;7.82;;;9.60;99.90;;;;;;5114554;28;20027;-88
2021/11/06 05:28:54;;;;;;;15.35;10.10;;;9.60;99.90;;;;;;5114382;28;20405;-89
2021/11/06 05:31:21;;;;;;;11.70;9.20;;;9.60;99.90;;;;;;5114548;28;20106;-89
2021/11/06 05:33:47;;;;;;;11.88;8.02;;;9.60;99.90;;;;;;5115448;28;20505;-87
2021/11/06 05:36:12;;;;;;;11.98;8.05;;;9.60;99.90;;;;;;5114251;28;20024;-94
2021/11/06 05:38:38;;;;;;;11.88;8.77;;;9.50;99.90;;;;;;5114558;28;20026;-88
2021/11/06 05:41:04;;;;;;;8.80;7.40;;;9.50;99.90;;;;;;5114543;28;20054;-86
2021/11/06 05:43:30;;;;;;;8.55;6.80;;;9.40;99.90;;;;;;5114360;28;20466;-84
2021/11/06 05:45:55;;;;;;;9.80;7.50;;;9.40;99.90;;;;;;5113973;28;20029;-87
2021/11/06 05:48:22;;;;;;;10.65;7.70;;;9.40;99.90;;;;;;5113780;28;20100;-89
2021/11/06 05:50:49;;;;;;;11.70;7.93;;;9.40;99.90;;;;;;5114924;28;20486;-96
2021/11/06 05:53:15;;;;;;;8.13;6.70;;;9.40;99.90;;;;;;5114716;28;20028;-84
2021/11/06 05:55:41;;;;;;;8.50;6.68;;;9.40;99.90;;;;;;5113865;28;20119;-90
2021/11/06 05:58:08;;;;;;;9.93;7.55;;;9.30;99.90;;;;;;5114335;28;20031;-88
2021/11/06 06:00:35;;;;;;;8.35;7.10;;;9.30;99.90;;;;;;5114179;28;20039;-88
2021/11/06 06:03:00;;;;;;;9.82;7.30;;;9.30;99.90;;;;;;5113903;28;20051;-87
2021/11/06 06:05:26;;;;;;;10.95;6.40;;;9.30;99.90;;;;;;5114046;28;20027;-89
2021/11/06 06:07:53;;;;;;;7.13;6.43;;;9.30;99.90;;;;;;5113835;28;20114;-87
2021/11/06 06:10:19;;;;;;;9.52;6.70;;;9.30;99.90;;;;;;5113763;28;20028;-89
2021/11/06 06:12:50;;;;;;;7.95;6.13;;;9.30;99.90;;;;;;5098701;28;20020;-89
2021/11/06 06:15:16;;;;;;;6.43;5.70;;;9.30;99.90;;;;;;5094600;28;20028;-91
2021/11/06 14:17:49;;;;;;;11.00;8.35;;;10.10;97.50;;;;;;5091684;28;20911;-89
2021/11/06 14:20:18;;;;;;;12.32;9.27;;;10.00;97.90;;;;;;5091369;28;20052;-94
2021/11/06 14:22:48;;;;;;;14.30;9.80;;;9.90;98.70;;;;;;5090593;28;20528;-85
2021/11/06 14:25:29;;;;;;;20.83;12.68;;;9.90;98.20;;;;;;5090463;28;20091;-92
2021/11/06 14:28:09;;;;;;;23.08;13.63;;;9.80;98.20;;;;;;5090613;28;20482;-88
2021/11/06 14:31:02;;;;;;;49.75;23.90;;;9.90;97.90;;;;;;5072116;28;20024;-86
2021/11/06 14:33:38;;;;;;;44.55;23.08;;;9.80;97.90;;;;;;5070084;28;20029;-92
2021/11/06 14:36:16;;;;;;;19.70;12.85;;;9.80;98.10;;;;;;5070357;28;20020;-90
2021/11/06 14:39:02;;;;;;;23.95;15.52;;;9.80;97.60;;;;;;5072413;28;20016;-91
2021/11/06 14:41:55;;;;;;;18.70;14.50;;;9.70;98.20;;;;;;5075296;28;20029;-91
2021/11/06 14:44:23;;;;;;;19.10;10.88;;;9.60;98.70;;;;;;5070225;28;20021;-87
2021/11/06 14:46:55;;;;;;;14.73;10.00;;;9.60;98.10;;;;;;5069888;28;20426;-91
2021/11/06 14:49:41;;;;;;;17.23;11.13;;;9.70;97.90;;;;;;5070369;28;20390;-91
2021/11/06 14:52:12;;;;;;;15.65;11.30;;;9.70;98.10;;;;;;5070200;28;20468;-93
2021/11/06 14:54:47;;;;;;;25.50;15.45;;;9.60;98.30;;;;;;5069878;28;20033;-89
2021/11/06 14:57:23;;;;;;;16.05;11.00;;;9.60;98.40;;;;;;5069844;28;20032;-93
2021/11/06 15:00:05;;;;;;;12.07;9.02;;;9.60;98.60;;;;;;5069837;28;20070;-90
2021/11/06 15:02:31;;;;;;;12.85;8.98;;;9.60;98.70;;;;;;5079973;28;20051;-90
2021/11/06 15:04:57;;;;;;;13.13;10.68;;;9.50;98.70;;;;;;5090040;28;20060;-89
2021/11/06 15:07:23;;;;;;;19.80;13.10;;;9.50;99.00;;;;;;5089812;28;20024;-90
2021/11/06 15:09:49;;;;;;;35.95;25.05;;;9.40;98.90;;;;;;5090990;28;20060;-92
2021/11/06 15:12:15;;;;;;;16.02;12.20;;;9.40;99.10;;;;;;5072563;28;20017;-96
2021/11/06 15:14:41;;;;;;;21.17;14.57;;;9.30;99.20;;;;;;5070603;28;20035;-89
2021/11/06 15:17:08;;;;;;;18.92;14.30;;;9.30;99.40;;;;;;5069223;28;20446;-93
2021/11/06 15:19:37;;;;;;;22.25;15.10;;;9.20;99.30;;;;;;5071670;28;20021;-91
2021/11/06 15:22:03;;;;;;;22.05;14.02;;;9.20;99.70;;;;;;5070337;28;20070;-94
2021/11/06 15:24:29;;;;;;;20.98;13.85;;;9.10;99.90;;;;;;5069588;28;20024;-90
2021/11/06 15:26:55;;;;;;;33.38;23.48;;;9.00;99.90;;;;;;5068667;28;20032;-95
2021/11/06 15:29:21;;;;;;;48.90;36.38;;;8.90;99.90;;;;;;5056436;28;20021;-96
2021/11/06 15:31:53;;;;;;;43.95;25.15;;;8.90;99.90;;;;;;5056640;28;20024;-89
2021/11/06 15:34:18;;;;;;;70.68;43.35;;;8.90;99.90;;;;;;5055820;28;20025;-94
2021/11/06 15:36:45;;;;;;;53.30;30.33;;;8.90;99.90;;;;;;5058848;28;20032;-92
2021/11/06 15:39:11;;;;;;;45.33;27.70;;;8.80;99.90;;;;;;5058417;28;20029;-96
2021/11/06 15:43:21;;;;;;;29.60;18.92;;;8.70;99.90;;;;;;5093626;28;20394;-95
2021/11/06 15:45:46;;;;;;;36.03;24.38;;;8.70;99.90;;;;;;5090341;28;20028;-95
2021/11/06 15:48:13;;;;;;;40.88;28.15;;;8.60;99.90;;;;;;5091248;28;20020;-94
2021/11/06 15:50:39;;;;;;;66.57;40.53;;;8.60;99.90;;;;;;5091038;28;20540;-92
2021/11/06 15:53:52;;;;;;;86.72;51.85;;;8.60;99.90;;;;;;5090755;28;20119;-94
2021/11/06 15:56:18;;;;;;;49.35;31.60;;;8.60;99.90;;;;;;5090969;28;20031;-94
2021/11/06 15:58:45;;;;;;;47.97;31.35;;;8.50;99.90;;;;;;5091530;28;20033;-96
2021/11/06 16:01:11;;;;;;;42.05;25.67;;;8.50;99.90;;;;;;5091708;28;20024;-95
2021/11/06 16:03:39;;;;;;;36.55;25.17;;;8.40;99.90;;;;;;5091645;28;20027;-93
2021/11/06 16:06:05;;;;;;;37.05;24.35;;;8.40;99.90;;;;;;5090258;28;20152;-90
2021/11/06 16:08:30;;;;;;;38.58;24.75;;;8.30;99.90;;;;;;5090874;28;20110;-91
2021/11/06 16:10:56;;;;;;;45.35;27.17;;;8.30;99.90;;;;;;5090166;28;20017;-92
2021/11/06 16:13:24;;;;;;;28.13;20.85;;;8.40;99.90;;;;;;5090226;28;20027;-93
2021/11/06 16:15:51;;;;;;;38.83;25.60;;;8.40;99.90;;;;;;5090320;28;20078;-91
2021/11/06 16:18:25;;;;;;;41.10;28.48;;;8.50;99.90;;;;;;5090415;28;20032;-94
2021/11/06 16:20:53;;;;;;;75.05;45.05;;;8.50;99.90;;;;;;5090176;28;20017;-95
2021/11/06 16:23:19;;;;;;;36.75;25.50;;;8.50;99.90;;;;;;5090266;28;20026;-90
2021/11/06 16:25:45;;;;;;;24.05;17.38;;;8.50;99.90;;;;;;5089910;28;20070;-91
2021/11/06 16:28:10;;;;;;;21.23;15.73;;;8.50;99.90;;;;;;5089664;28;20024;-92
2021/11/06 16:30:36;;;;;;;27.38;17.05;;;8.40;99.90;;;;;;5089804;28;20119;-93
2021/11/06 16:33:02;;;;;;;23.08;16.48;;;8.40;99.90;;;;;;5089940;28;20024;-92
2021/11/06 16:35:28;;;;;;;22.58;16.15;;;8.40;99.90;;;;;;5089802;28;20585;-92
2021/11/06 16:37:54;;;;;;;23.55;16.25;;;8.30;99.90;;;;;;5089642;28;20098;-88
2021/11/06 16:40:19;;;;;;;27.13;17.83;;;8.20;99.90;;;;;;5089490;28;20111;-88
2021/11/06 16:42:46;;;;;;;26.08;19.35;;;8.20;99.90;;;;;;5089412;28;20147;-88
2021/11/06 16:45:13;;;;;;;23.20;17.20;;;8.20;99.90;;;;;;5089479;28;20028;-88
2021/11/06 16:47:39;;;;;;;27.92;19.48;;;8.20;99.90;;;;;;5089371;28;20433;-88
2021/11/06 16:50:06;;;;;;;27.75;18.20;;;8.10;99.90;;;;;;5089882;28;20020;-87
2021/11/06 16:52:32;;;;;;;26.95;18.73;;;8.10;99.90;;;;;;5088343;28;20024;-89
2021/11/06 16:54:58;;;;;;;28.20;19.85;;;8.00;99.90;;;;;;5075261;28;20031;-90
2021/11/06 16:57:24;;;;;;;28.95;19.92;;;8.00;99.90;;;;;;5077181;28;20025;-91
2021/11/06 16:59:49;;;;;;;29.73;23.17;;;8.00;99.90;;;;;;5075835;28;20029;-90
2021/11/06 17:02:15;;;;;;;25.35;16.17;;;7.90;99.90;;;;;;5075724;28;20471;-90
2021/11/06 17:04:42;;;;;;;19.73;13.73;;;7.90;99.90;;;;;;5075545;28;20031;-89
2021/11/06 17:07:12;;;;;;;20.23;14.48;;;8.00;99.90;;;;;;5093245;28;20027;-90
2021/11/06 17:10:02;;;;;;;23.85;15.27;;;8.00;99.90;;;;;;5095844;28;20119;-88
2021/11/06 17:12:27;;;;;;;19.38;13.85;;;8.00;99.90;;;;;;5095863;28;20028;-89
2021/11/06 17:14:53;;;;;;;21.58;13.95;;;8.00;99.90;;;;;;5095951;28;20028;-89
2021/11/06 17:17:19;;;;;;;17.15;12.57;;;7.90;99.90;;;;;;5088056;28;20119;-90
2021/11/06 17:19:44;;;;;;;16.17;10.95;;;7.90;99.90;;;;;;5075393;28;20482;-89
2021/11/06 17:22:10;;;;;;;22.10;13.82;;;8.00;99.90;;;;;;5074971;28;20028;-94
2021/11/06 17:24:36;;;;;;;19.25;12.45;;;8.00;99.90;;;;;;5075127;28;20025;-92
2021/11/06 17:27:04;;;;;;;21.35;13.88;;;8.00;99.90;;;;;;5075379;28;20016;-93
2021/11/06 17:29:30;;;;;;;21.27;13.30;;;8.00;99.90;;;;;;5075200;28;20031;-91
2021/11/06 17:31:56;;;;;;;21.48;14.10;;;8.00;99.90;;;;;;5075266;28;20024;-87
2021/11/06 17:34:22;;;;;;;24.58;14.30;;;8.10;99.90;;;;;;5075322;28;20062;-89
2021/11/06 17:36:48;;;;;;;19.92;14.40;;;8.10;99.90;;;;;;5075219;28;20059;-88
2021/11/06 17:39:13;;;;;;;23.23;14.43;;;8.10;99.90;;;;;;5075050;28;20502;-89
2021/11/06 17:41:39;;;;;;;21.35;14.25;;;8.20;99.90;;;;;;5074791;28;20078;-92
2021/11/06 17:44:05;;;;;;;22.95;14.88;;;8.20;99.90;;;;;;5075088;28;20131;-85
2021/11/06 17:46:31;;;;;;;24.25;15.38;;;8.30;99.90;;;;;;5074504;28;20024;-88
2021/11/06 17:48:56;;;;;;;85.05;41.58;;;8.30;99.90;;;;;;5071769;28;20056;-88
2021/11/06 17:51:54;;;;;;;42.15;22.35;;;8.30;99.90;;;;;;5069771;28;20105;-88
2021/11/06 17:54:11;;;;;;;41.70;23.00;;;8.30;99.90;;;;;;5075430;28;20028;-87
2021/11/06 17:56:37;;;;;;;37.90;23.10;;;8.20;99.90;;;;;;5074396;28;20546;-87
2021/11/06 17:59:03;;;;;;;42.63;24.52;;;8.10;99.90;;;;;;5074501;28;20028;-87
2021/11/06 18:01:31;;;;;;;63.63;33.45;;;8.10;99.90;;;;;;5074317;28;20021;-91
2021/11/06 18:03:57;;;;;;;87.15;44.58;;;8.00;99.90;;;;;;5074282;28;20028;-92
2021/11/06 18:06:23;;;;;;;83.53;42.88;;;7.90;99.90;;;;;;5073832;28;20028;-92
2021/11/06 18:08:49;;;;;;;88.32;45.95;;;7.80;99.90;;;;;;5074391;28;20481;-90
2021/11/06 18:11:15;;;;;;;83.35;43.05;;;7.80;99.90;;;;;;5074941;28;20048;-87
2021/11/06 18:13:41;;;;;;;75.13;39.83;;;7.80;99.90;;;;;;5075197;28;20048;-88
2021/11/06 18:16:07;;;;;;;70.05;36.92;;;7.70;99.90;;;;;;5073593;28;20387;-88
2021/11/06 18:18:35;;;;;;;54.95;32.55;;;7.70;99.90;;;;;;5073584;28;20024;-86
2021/11/06 18:21:01;;;;;;;50.42;29.65;;;7.60;99.90;;;;;;5074677;28;20024;-84
2021/11/06 18:23:27;;;;;;;43.72;25.83;;;7.50;99.90;;;;;;5074693;28;20031;-84
2021/11/06 18:25:52;;;;;;;37.35;22.63;;;7.50;99.90;;;;;;5073536;28;20120;-85
2021/11/06 18:28:18;;;;;;;31.13;19.33;;;7.50;99.90;;;;;;5074456;28;20025;-84
2021/11/06 18:30:44;;;;;;;37.38;22.15;;;7.40;99.90;;;;;;5072475;28;20073;-85
2021/11/06 18:33:10;;;;;;;31.15;19.85;;;7.40;99.90;;;;;;5073275;28;20398;-86
2021/11/06 18:35:36;;;;;;;30.08;20.27;;;7.40;99.90;;;;;;5073043;28;20025;-86
2021/11/06 18:38:03;;;;;;;32.10;20.08;;;7.40;99.90;;;;;;5074207;28;20035;-81
2021/11/06 18:40:30;;;;;;;32.80;20.88;;;7.40;99.90;;;;;;5074010;28;20081;-80
2021/11/06 18:42:56;;;;;;;33.17;19.92;;;7.30;99.90;;;;;;5072221;28;20446;-80
2021/11/06 18:45:30;;;;;;;32.78;19.40;;;7.20;99.90;;;;;;5073942;28;20106;-83
2021/11/06 18:47:56;;;;;;;33.78;21.08;;;7.20;99.90;;;;;;5072606;28;20028;-81
2021/11/06 18:50:26;;;;;;;34.00;20.77;;;7.20;99.90;;;;;;5073174;28;20082;-80
2021/11/06 18:52:52;;;;;;;37.33;21.83;;;7.20;99.90;;;;;;5073897;28;20705;-80
2021/11/06 18:55:18;;;;;;;38.70;22.20;;;7.20;99.90;;;;;;5072493;28;20265;-80
2021/11/06 18:57:48;;;;;;;40.45;22.80;;;7.20;99.90;;;;;;5073021;28;20463;-80
2021/11/06 19:00:14;;;;;;;36.20;21.63;;;7.10;99.90;;;;;;5073768;28;20538;-81
2021/11/06 19:02:40;;;;;;;36.10;20.75;;;7.10;99.90;;;;;;5072363;28;20028;-81
2021/11/06 19:05:06;;;;;;;32.97;21.10;;;7.10;99.90;;;;;;5072385;28;20517;-81
2021/11/06 19:07:32;;;;;;;38.67;22.50;;;7.10;99.90;;;;;;5073732;28;20031;-81
2021/11/06 19:09:57;;;;;;;39.30;21.75;;;7.00;99.90;;;;;;5073492;28;20383;-81
2021/11/06 19:12:23;;;;;;;39.75;21.92;;;6.90;99.90;;;;;;5072361;28;20481;-81
2021/11/06 19:14:49;;;;;;;35.90;22.25;;;6.90;99.90;;;;;;5073764;28;20029;-81
2021/11/06 19:17:16;;;;;;;33.90;20.48;;;6.90;99.90;;;;;;5070275;28;20033;-81
2021/11/06 19:19:42;;;;;;;47.50;27.13;;;6.90;99.90;;;;;;5052237;28;20091;-81
2021/11/06 19:22:08;;;;;;;110.25;58.88;;;6.80;99.90;;;;;;5060257;28;20029;-81
2021/11/06 19:24:33;;;;;;;55.90;32.78;;;6.80;99.90;;;;;;5073465;28;20082;-81
2021/11/06 19:27:13;;;;;;;44.42;26.58;;;6.80;99.90;;;;;;5073452;28;20028;-83
2021/11/06 19:29:38;;;;;;;41.60;24.42;;;6.80;99.90;;;;;;5072126;28;20537;-82
2021/11/06 19:32:05;;;;;;;43.05;25.58;;;6.80;99.90;;;;;;5072082;28;20020;-82
2021/11/06 19:34:33;;;;;;;37.13;22.77;;;6.70;99.90;;;;;;5073519;28;20387;-82
2021/11/06 19:36:59;;;;;;;30.48;20.08;;;6.60;99.90;;;;;;5071905;28;20025;-82
2021/11/06 19:39:25;;;;;;;79.53;38.83;;;6.70;99.90;;;;;;5071831;28;20020;-83
2021/11/06 19:41:51;;;;;;;39.63;24.35;;;6.70;99.90;;;;;;5066001;28;20041;-83
2021/11/06 19:44:18;;;;;;;36.80;21.20;;;6.70;99.90;;;;;;5053214;28;20510;-83
2021/11/06 19:46:51;;;;;;;35.38;20.48;;;6.80;99.90;;;;;;5052368;28;20032;-88
2021/11/06 19:49:20;;;;;;;35.30;19.95;;;6.70;99.90;;;;;;5054001;28;20025;-89
2021/11/06 19:51:47;;;;;;;34.83;22.05;;;6.70;99.90;;;;;;5052886;28;20116;-89
2021/11/06 19:54:13;;;;;;;34.55;19.85;;;6.80;99.90;;;;;;5052796;28;20060;-87
2021/11/06 19:56:40;;;;;;;30.05;18.98;;;6.70;99.90;;;;;;5052856;28;20497;-88
2021/11/06 19:59:06;;;;;;;27.95;18.35;;;6.70;99.90;;;;;;5052663;28;20112;-88
2021/11/06 20:01:32;;;;;;;31.63;20.10;;;6.60;99.90;;;;;;5060215;28;20178;-88
2021/11/06 20:03:58;;;;;;;38.10;22.55;;;6.60;99.90;;;;;;5047984;28;20040;-88
2021/11/06 20:06:24;;;;;;;39.60;22.73;;;6.70;99.90;;;;;;5060540;28;20029;-88
2021/11/06 20:08:52;;;;;;;41.33;24.40;;;6.70;99.90;;;;;;5068650;28;20025;-88
2021/11/06 20:11:17;;;;;;;33.03;20.38;;;6.70;99.90;;;;;;5052781;28;20032;-88
2021/11/06 20:13:45;;;;;;;36.08;21.20;;;6.80;99.90;;;;;;5052551;28;20024;-88
2021/11/06 20:16:10;;;;;;;34.55;18.27;;;6.80;99.90;;;;;;5052603;28;20021;-88
2021/11/06 20:18:36;;;;;;;33.35;20.25;;;6.80;99.90;;;;;;5052520;28;20021;-88
2021/11/06 20:21:04;;;;;;;32.10;16.98;;;6.80;99.90;;;;;;5061108;28;20021;-88
2021/11/06 20:23:30;;;;;;;25.75;15.52;;;6.80;99.90;;;;;;5052616;28;20803;-88
2021/11/06 20:25:56;;;;;;;24.95;15.93;;;6.80;99.90;;;;;;5058702;28;20028;-88
2021/11/06 20:28:22;;;;;;;28.20;16.02;;;6.80;99.90;;;;;;5076840;28;20028;-88
2021/11/06 20:30:49;;;;;;;25.80;14.85;;;6.80;99.90;;;;;;5076252;28;20040;-88
2021/11/06 20:33:15;;;;;;;28.30;15.05;;;6.70;99.90;;;;;;5076406;28;20035;-89
2021/11/06 20:35:41;;;;;;;25.50;15.52;;;6.70;99.90;;;;;;5076613;28;20043;-88